createdAt,value
2019-01-02T00:02:04.141Z,5.60
2019-01-02T00:04:34.565Z,5.60
2019-01-02T00:07:04.248Z,5.60
2019-01-02T00:09:33.744Z,5.60
2019-01-02T00:12:03.807Z,5.60
2019-01-02T00:14:33.541Z,5.60
2019-01-02T00:17:03.575Z,5.60
2019-01-02T00:19:33.218Z,5.60
2019-01-02T00:22:02.558Z,5.60
2019-01-02T00:24:31.945Z,5.50
2019-01-02T00:27:01.319Z,5.60
2019-01-02T00:29:31.921Z,5.60
2019-01-02T00:32:07.231Z,5.50
2019-01-02T00:34:37.231Z,5.50
2019-01-02T00:37:06.533Z,5.50
2019-01-02T00:39:36.552Z,5.50
2019-01-02T00:42:06.113Z,5.40
2019-01-02T00:44:36.054Z,5.30
2019-01-02T00:47:05.545Z,5.10
2019-01-02T00:49:34.865Z,5.00
2019-01-02T00:52:04.182Z,5.00
2019-01-02T00:54:33.637Z,4.90
2019-01-02T00:57:02.993Z,4.90
2019-01-02T00:59:32.400Z,4.90
2019-01-02T01:02:01.902Z,4.90
2019-01-02T01:04:31.417Z,4.90
2019-01-02T01:07:01.028Z,5.00
2019-01-02T01:09:35.060Z,5.00
2019-01-02T01:12:04.477Z,5.00
2019-01-02T01:14:33.932Z,4.90
2019-01-02T01:17:03.332Z,4.90
2019-01-02T01:19:32.829Z,4.80
2019-01-02T01:22:02.144Z,4.80
2019-01-02T01:24:31.530Z,4.80
2019-01-02T01:27:01.412Z,4.70
2019-01-02T01:29:31.025Z,4.70
2019-01-02T01:32:00.473Z,4.80
2019-01-02T01:34:29.875Z,4.80
2019-01-02T01:36:59.312Z,4.80
2019-01-02T01:39:29.004Z,4.60
2019-01-02T01:41:58.392Z,4.80
2019-01-02T01:44:27.766Z,4.80
2019-01-02T01:46:57.316Z,4.90
2019-01-02T01:49:26.712Z,4.90
2019-01-02T01:51:56.085Z,5.00
2019-01-02T01:54:25.489Z,5.00
2019-01-02T01:56:54.934Z,5.00
2019-01-02T01:59:24.638Z,5.10
2019-01-02T02:01:54.448Z,5.10
2019-01-02T02:04:23.893Z,5.10
2019-01-02T02:06:53.523Z,5.20
2019-01-02T02:09:22.941Z,5.20
2019-01-02T02:11:52.225Z,5.30
2019-01-02T02:14:40.705Z,5.20
2019-01-02T02:17:10.160Z,5.30
2019-01-02T02:19:39.585Z,5.30
2019-01-02T02:22:08.888Z,5.30
2019-01-02T02:24:38.668Z,5.40
2019-01-02T02:27:08.148Z,5.40
2019-01-02T02:29:37.550Z,5.40
2019-01-02T02:32:06.925Z,5.40
2019-01-02T02:34:36.360Z,5.50
2019-01-02T02:37:05.676Z,5.50
2019-01-02T02:39:35.040Z,5.50
2019-01-02T02:42:05.855Z,5.50
2019-01-02T02:44:35.630Z,5.50
2019-01-02T02:47:05.002Z,5.50
2019-01-02T02:49:34.400Z,5.50
2019-01-02T02:52:03.772Z,5.50
2019-01-02T02:54:33.054Z,5.50
2019-01-02T02:57:02.336Z,5.60
2019-01-02T02:59:31.777Z,5.60
2019-01-02T03:02:01.661Z,5.60
2019-01-02T03:04:31.331Z,5.60
2019-01-02T03:07:00.958Z,5.60
2019-01-02T03:09:30.582Z,5.60
2019-01-02T03:11:59.980Z,5.60
2019-01-02T03:14:29.373Z,5.60
2019-01-02T03:16:59.170Z,5.70
2019-01-02T03:19:28.706Z,5.70
2019-01-02T03:21:58.388Z,5.70
2019-01-02T03:24:28.009Z,5.70
2019-01-02T03:27:17.109Z,5.70
2019-01-02T03:29:46.745Z,5.70
2019-01-02T03:32:17.267Z,5.70
2019-01-02T03:34:46.963Z,5.70
2019-01-02T03:37:16.325Z,5.70
2019-01-02T03:39:46.810Z,5.70
2019-01-02T03:42:16.110Z,5.70
2019-01-02T03:44:45.612Z,5.70
2019-01-02T03:47:14.943Z,5.70
2019-01-02T03:49:44.441Z,5.70
2019-01-02T03:52:13.744Z,5.70
2019-01-02T03:54:42.945Z,5.70
2019-01-02T03:57:12.371Z,5.70
2019-01-02T03:59:41.756Z,5.70
2019-01-02T04:02:11.136Z,5.70
2019-01-02T04:04:40.456Z,5.70
2019-01-02T04:07:09.740Z,5.70
2019-01-02T04:09:39.014Z,5.70
2019-01-02T04:12:08.446Z,5.70
2019-01-02T04:14:37.854Z,5.70
2019-01-02T04:17:07.142Z,5.60
2019-01-02T04:19:36.406Z,5.60
2019-01-02T04:22:05.678Z,5.50
2019-01-02T04:24:35.040Z,5.50
2019-01-02T04:27:04.385Z,5.40
2019-01-02T04:29:33.956Z,5.40
2019-01-02T04:32:03.343Z,5.40
2019-01-02T04:34:32.920Z,5.40
2019-01-02T04:37:02.358Z,5.50
2019-01-02T04:39:31.852Z,5.50
2019-01-02T04:42:01.262Z,5.50
2019-01-02T04:44:30.814Z,5.50
2019-01-02T04:47:00.654Z,5.40
2019-01-02T04:49:29.978Z,5.40
2019-01-02T04:51:59.356Z,5.30
2019-01-02T04:54:28.714Z,5.30
2019-01-02T04:56:58.003Z,5.20
2019-01-02T04:59:27.410Z,5.20
2019-01-02T05:01:56.722Z,5.20
2019-01-02T05:04:26.110Z,5.20
2019-01-02T05:06:55.472Z,5.20
2019-01-02T05:09:24.930Z,5.30
2019-01-02T05:11:54.362Z,5.30
2019-01-02T05:14:23.628Z,5.30
2019-01-02T05:16:52.954Z,5.30
2019-01-02T05:19:22.328Z,5.30
2019-01-02T05:21:51.739Z,5.40
2019-01-02T05:24:21.101Z,5.40
2019-01-02T05:26:50.376Z,5.40
2019-01-02T05:29:19.732Z,5.40
2019-01-02T05:31:48.992Z,5.40
2019-01-02T05:34:18.240Z,5.40
2019-01-02T05:36:49.006Z,5.40
2019-01-02T05:39:18.432Z,5.40
2019-01-02T05:41:47.878Z,5.30
2019-01-02T05:44:17.272Z,5.30
2019-01-02T05:46:46.754Z,5.30
2019-01-02T05:49:16.099Z,5.30
2019-01-02T05:51:45.418Z,5.30
2019-01-02T05:54:14.690Z,5.30
2019-01-02T05:56:43.990Z,5.30
2019-01-02T05:59:13.290Z,5.20
2019-01-02T06:01:42.604Z,5.20
2019-01-02T06:04:11.928Z,5.20
2019-01-02T06:06:41.432Z,5.20
2019-01-02T06:09:11.040Z,5.10
2019-01-02T06:11:40.248Z,5.10
2019-01-02T06:14:09.798Z,5.10
2019-01-02T06:16:39.186Z,5.10
2019-01-02T06:19:08.632Z,5.10
2019-01-02T06:21:37.991Z,5.10
2019-01-02T06:24:08.140Z,5.00
2019-01-02T06:26:37.474Z,5.10
2019-01-02T06:29:06.800Z,5.00
2019-01-02T06:31:36.077Z,5.10
2019-01-02T06:34:05.585Z,5.10
2019-01-02T06:36:34.912Z,5.10
2019-01-02T06:39:05.239Z,5.10
2019-01-02T06:41:34.706Z,5.10
2019-01-02T06:44:04.253Z,5.00
2019-01-02T06:46:33.561Z,5.00
2019-01-02T06:49:03.053Z,4.80
2019-01-02T06:51:32.453Z,4.60
2019-01-02T06:54:04.991Z,4.20
2019-01-02T06:56:34.885Z,3.90
2019-01-02T06:59:04.337Z,3.60
2019-01-02T07:01:33.773Z,3.40
2019-01-02T07:04:03.176Z,3.30
2019-01-02T07:06:32.567Z,3.20
2019-01-02T07:09:02.217Z,3.20
2019-01-02T07:11:31.777Z,3.20
2019-01-02T07:14:03.875Z,3.20
2019-01-02T07:16:33.252Z,3.30
2019-01-02T07:19:02.731Z,3.30
2019-01-02T07:21:32.225Z,3.40
2019-01-02T07:24:01.883Z,3.50
2019-01-02T07:26:33.631Z,3.50
2019-01-02T07:29:03.115Z,3.60
2019-01-02T07:31:38.970Z,3.70
2019-01-02T07:34:18.593Z,3.70
2019-01-02T07:37:20.427Z,3.80
2019-01-02T07:40:25.779Z,3.90
2019-01-02T07:43:22.353Z,3.90
2019-01-02T07:46:27.857Z,4.00
2019-01-02T07:49:42.661Z,4.00
2019-01-02T07:52:51.633Z,4.00
2019-01-02T07:55:56.977Z,4.00
2019-01-02T07:59:08.957Z,4.00
2019-01-02T08:02:00.065Z,4.00
2019-01-02T08:04:57.536Z,4.00
2019-01-02T08:07:56.282Z,4.10
2019-01-02T08:11:03.763Z,4.10
2019-01-02T08:14:12.801Z,4.20
2019-01-02T08:17:18.673Z,4.20
2019-01-02T08:21:02.250Z,4.20
2019-01-02T08:24:09.187Z,4.30
2019-01-02T08:27:25.655Z,4.30
2019-01-02T08:30:35.919Z,4.40
2019-01-02T08:33:46.395Z,4.50
2019-01-02T08:36:54.034Z,4.50
2019-01-02T08:40:01.505Z,4.50
2019-01-02T08:43:06.519Z,4.60
2019-01-02T08:46:20.017Z,4.60
2019-01-02T08:49:27.670Z,4.60
2019-01-02T08:52:45.524Z,4.70
2019-01-02T08:56:02.061Z,4.70
2019-01-02T08:59:07.225Z,4.70
2019-01-02T09:02:15.712Z,4.70
2019-01-02T09:05:13.574Z,4.70
2019-01-02T09:08:19.678Z,4.80
2019-01-02T09:11:38.923Z,4.90
2019-01-02T09:14:49.338Z,4.90
2019-01-02T09:18:09.900Z,4.90
2019-01-02T09:21:20.895Z,4.90
2019-01-02T09:24:46.132Z,4.90
2019-01-02T09:28:09.800Z,4.90
2019-01-02T09:31:34.761Z,4.90
2019-01-02T09:34:34.790Z,4.90
2019-01-02T09:37:41.428Z,4.90
2019-01-02T09:40:27.574Z,5.00
2019-01-02T09:43:36.841Z,5.00
2019-01-02T09:46:35.142Z,5.00
2019-01-02T09:49:28.375Z,5.00
2019-01-02T09:52:50.940Z,5.00
2019-01-02T09:55:46.844Z,5.00
2019-01-02T09:59:05.315Z,5.00
2019-01-02T10:06:02.406Z,5.00
2019-01-02T10:09:18.714Z,5.00
2019-01-02T10:12:26.705Z,5.00
2019-01-02T10:15:52.444Z,5.10
2019-01-02T10:19:20.450Z,5.20
2019-01-02T10:22:32.081Z,5.20
2019-01-02T10:25:34.328Z,5.20
2019-01-02T10:29:02.812Z,5.20
2019-01-02T10:32:05.347Z,5.20
2019-01-02T10:35:09.698Z,5.20
2019-01-02T10:38:15.740Z,5.20
2019-01-02T10:41:39.780Z,5.20
2019-01-02T10:44:48.028Z,5.20
2019-01-02T10:47:42.603Z,5.20
2019-01-02T10:50:38.396Z,5.20
2019-01-02T10:53:36.926Z,5.20
2019-01-02T10:56:32.054Z,5.20
2019-01-02T10:59:41.358Z,5.20
2019-01-02T11:02:34.238Z,5.20
2019-01-02T11:05:56.506Z,5.20
2019-01-02T11:09:31.445Z,5.30
2019-01-02T11:12:38.558Z,5.20
2019-01-02T11:15:38.927Z,5.20
2019-01-02T11:19:05.106Z,5.20
2019-01-02T11:22:16.942Z,5.20
2019-01-02T11:25:33.114Z,5.10
2019-01-02T11:28:25.744Z,5.10
2019-01-02T11:31:34.750Z,4.80
2019-01-02T11:34:42.772Z,4.50
2019-01-02T11:37:40.254Z,4.00
2019-01-02T11:40:36.072Z,3.60
2019-01-02T11:43:38.978Z,3.30
2019-01-02T11:46:09.468Z,3.00
2019-01-02T11:48:39.896Z,2.80
2019-01-02T11:51:10.900Z,2.70
2019-01-02T11:53:40.530Z,2.60
2019-01-02T11:56:12.162Z,2.50
2019-01-02T11:58:49.817Z,2.50
2019-01-02T12:01:15.762Z,2.40
2019-01-02T12:03:46.635Z,2.50
2019-01-02T12:06:16.696Z,2.50
2019-01-02T12:08:46.164Z,2.60
2019-01-02T12:11:15.524Z,2.70
2019-01-02T12:13:44.868Z,2.80
2019-01-02T12:16:16.332Z,2.90
2019-01-02T12:18:49.944Z,3.00
2019-01-02T12:21:19.680Z,3.00
2019-01-02T12:23:49.454Z,3.10
2019-01-02T12:26:18.846Z,3.10
2019-01-02T12:28:48.267Z,3.20
2019-01-02T12:31:18.629Z,3.30
2019-01-02T12:33:48.410Z,3.30
2019-01-02T12:36:17.776Z,3.40
2019-01-02T12:38:47.130Z,3.50
2019-01-02T12:41:18.740Z,3.60
2019-01-02T12:43:50.650Z,3.60
2019-01-02T12:46:20.057Z,3.70
2019-01-02T12:48:51.337Z,3.70
2019-01-02T12:51:20.974Z,3.80
2019-01-02T12:53:50.826Z,3.80
2019-01-02T12:56:20.992Z,3.90
2019-01-02T12:58:50.548Z,4.00
2019-01-02T13:01:26.934Z,4.00
2019-01-02T13:04:49.498Z,3.90
2019-01-02T13:07:50.226Z,3.90
2019-01-02T13:10:42.798Z,3.80
2019-01-02T13:13:42.788Z,3.70
2019-01-02T13:16:49.375Z,3.60
2019-01-02T13:19:37.179Z,3.50
2019-01-02T13:22:33.058Z,3.50
2019-01-02T13:25:19.531Z,3.50
2019-01-02T13:28:21.231Z,3.50
2019-01-02T13:31:24.999Z,3.60
2019-01-02T13:34:36.542Z,3.80
2019-01-02T13:37:52.974Z,4.00
2019-01-02T13:41:27.346Z,4.10
2019-01-02T13:44:54.905Z,4.10
2019-01-02T13:48:04.446Z,4.00
2019-01-02T13:51:10.334Z,3.90
2019-01-02T13:53:40.264Z,3.90
2019-01-02T13:56:12.842Z,3.80
2019-01-02T13:58:45.694Z,3.70
2019-01-02T14:01:16.004Z,3.70
2019-01-02T14:03:49.030Z,3.60
2019-01-02T14:06:18.908Z,3.50
2019-01-02T14:08:50.966Z,3.50
2019-01-02T14:11:20.616Z,3.40
2019-01-02T14:13:52.913Z,3.40
2019-01-02T14:16:22.402Z,3.30
2019-01-02T14:19:01.542Z,3.20
2019-01-02T14:21:32.826Z,3.10
2019-01-02T14:24:02.218Z,3.00
2019-01-02T14:26:31.894Z,3.00
2019-01-02T14:29:01.897Z,2.90
2019-01-02T14:31:38.641Z,2.80
2019-01-02T14:34:04.777Z,2.80
2019-01-02T14:36:34.376Z,2.70
2019-01-02T14:39:04.926Z,2.60
2019-01-02T14:41:34.286Z,2.60
2019-01-02T14:44:03.675Z,2.60
2019-01-02T14:46:33.069Z,2.50
2019-01-02T14:49:02.778Z,2.50
2019-01-02T14:51:32.946Z,2.40
2019-01-02T14:54:02.498Z,2.40
2019-01-02T14:56:31.998Z,2.40
2019-01-02T14:59:02.480Z,2.30
2019-01-02T15:01:31.862Z,2.30
2019-01-02T15:04:01.478Z,2.30
2019-01-02T15:06:30.828Z,2.30
2019-01-02T15:09:00.381Z,2.30
2019-01-02T15:11:29.791Z,2.30
2019-01-02T15:13:59.203Z,2.30
2019-01-02T15:16:28.626Z,2.30
2019-01-02T15:18:58.060Z,2.40
2019-01-02T15:21:27.793Z,2.40
2019-01-02T15:23:57.538Z,2.30
2019-01-02T15:26:26.887Z,2.30
2019-01-02T15:29:00.596Z,2.30
2019-01-02T15:31:30.034Z,2.30
2019-01-02T15:33:59.465Z,2.30
2019-01-02T15:36:28.786Z,2.20
2019-01-02T15:38:58.595Z,2.30
2019-01-02T15:41:27.948Z,2.30
2019-01-02T15:43:57.452Z,2.40
2019-01-02T15:46:26.822Z,2.40
2019-01-02T15:48:56.574Z,2.50
2019-01-02T15:51:26.302Z,2.50
2019-01-02T15:53:57.798Z,2.50
2019-01-02T15:56:31.558Z,2.60
2019-01-02T15:59:00.960Z,2.60
2019-01-02T16:01:30.280Z,2.60
2019-01-02T16:03:59.731Z,2.60
2019-01-02T16:06:29.129Z,2.70
2019-01-02T16:08:58.596Z,2.60
2019-01-02T16:11:31.237Z,2.70
2019-01-02T16:14:00.771Z,2.70
2019-01-02T16:16:30.406Z,2.70
2019-01-02T16:18:59.808Z,2.80
2019-01-02T16:21:30.448Z,2.80
2019-01-02T16:23:59.928Z,2.90
2019-01-02T16:26:29.382Z,2.90
2019-01-02T16:28:58.828Z,3.00
2019-01-02T16:31:28.531Z,3.00
2019-01-02T16:33:58.171Z,3.00
2019-01-02T16:36:27.811Z,3.00
2019-01-02T16:38:57.336Z,3.00
2019-01-02T16:41:26.837Z,3.00
2019-01-02T16:43:56.365Z,3.10
2019-01-02T16:46:25.734Z,3.10
2019-01-02T16:48:55.616Z,3.10
2019-01-02T16:51:25.195Z,3.10
2019-01-02T16:53:56.897Z,3.20
2019-01-02T16:56:26.765Z,3.20
2019-01-02T16:58:56.197Z,3.20
2019-01-02T17:01:25.659Z,3.20
2019-01-02T17:03:55.342Z,3.10
2019-01-02T17:06:25.137Z,3.10
2019-01-02T17:09:03.667Z,3.10
2019-01-02T17:11:33.362Z,3.10
2019-01-02T17:14:02.754Z,3.10
2019-01-02T17:16:32.314Z,3.10
2019-01-02T17:19:01.900Z,3.10
2019-01-02T17:21:31.918Z,3.10
2019-01-02T17:24:01.419Z,3.10
2019-01-02T17:26:31.297Z,3.10
2019-01-02T17:29:00.779Z,3.10
2019-01-02T17:31:30.631Z,3.10
2019-01-02T17:34:00.063Z,3.10
2019-01-02T17:36:29.521Z,3.10
2019-01-02T17:38:58.830Z,3.10
2019-01-02T17:41:28.237Z,3.20
2019-01-02T17:43:57.841Z,3.20
2019-01-02T17:46:27.364Z,3.10
2019-01-02T17:48:57.030Z,3.10
2019-01-02T17:51:26.479Z,3.00
2019-01-02T17:53:56.057Z,3.00
2019-01-02T17:56:25.628Z,2.90
2019-01-02T19:27:51.957Z,2.50
2019-01-02T19:30:21.903Z,2.50
2019-01-02T19:33:31.213Z,2.60
2019-01-02T19:36:05.861Z,2.60
2019-01-02T19:38:39.030Z,2.70
2019-01-02T19:41:08.307Z,2.60
2019-01-02T19:43:41.137Z,2.60
2019-01-02T19:46:10.966Z,2.60
2019-01-02T19:48:45.235Z,2.60
2019-01-02T19:51:20.326Z,2.50
2019-01-02T19:53:54.536Z,2.40
2019-01-02T19:56:24.437Z,2.30
2019-01-02T19:58:55.139Z,2.30
2019-01-02T20:01:32.578Z,2.30
2019-01-02T20:04:09.257Z,2.30
2019-01-02T20:06:38.900Z,2.30
2019-01-02T20:09:12.350Z,2.20
2019-01-02T20:11:48.668Z,2.20
2019-01-02T20:14:18.812Z,2.20
2019-01-02T20:16:55.008Z,2.30
2019-01-02T20:19:26.686Z,2.20
2019-01-02T20:21:57.254Z,2.20
2019-01-02T20:24:26.637Z,2.20
2019-01-02T20:27:07.148Z,2.20
2019-01-02T20:29:54.622Z,2.20
2019-01-02T20:32:24.278Z,2.20
2019-01-02T20:34:54.249Z,2.20
2019-01-02T20:37:23.790Z,2.20
2019-01-02T20:39:59.396Z,2.20
2019-01-02T20:42:29.290Z,2.20
2019-01-02T20:44:58.775Z,2.10
2019-01-02T20:47:33.974Z,2.10
2019-01-02T20:50:03.736Z,2.00
2019-01-02T20:55:42.003Z,2.00
2019-01-02T20:58:11.504Z,2.00
2019-01-02T21:00:41.400Z,2.00
2019-01-02T21:03:11.422Z,1.90
2019-01-02T21:05:51.136Z,1.90
2019-01-02T21:08:22.362Z,2.00
2019-01-02T21:10:52.287Z,1.90
2019-01-02T21:13:22.811Z,1.90
2019-01-02T21:16:28.713Z,2.00
2019-01-02T21:18:58.332Z,1.90
2019-01-02T21:21:27.925Z,2.00
2019-01-02T21:23:57.420Z,2.00
2019-01-02T21:26:26.941Z,2.00
2019-01-02T21:28:56.390Z,1.90
2019-01-02T21:31:25.677Z,1.90
2019-01-02T21:33:55.233Z,1.90
2019-01-02T21:36:24.658Z,1.80
2019-01-02T21:39:01.306Z,1.90
2019-01-02T21:41:32.372Z,1.90
2019-01-02T21:44:02.578Z,1.90
2019-01-02T21:46:32.183Z,1.90
2019-01-02T21:49:01.671Z,1.90
2019-01-02T21:51:31.618Z,1.90
2019-01-02T21:54:01.191Z,1.90
2019-01-02T21:56:30.605Z,1.80
2019-01-02T21:59:00.639Z,1.80
2019-01-02T22:01:30.054Z,1.80
2019-01-02T22:03:59.691Z,1.80
2019-01-02T22:06:29.214Z,1.70
2019-01-02T22:08:58.588Z,1.60
2019-01-02T22:11:33.139Z,1.60
2019-01-02T22:14:02.601Z,1.60
2019-01-02T22:16:32.292Z,1.60
2019-01-02T22:19:01.847Z,1.50
2019-01-02T22:21:31.126Z,1.60
2019-01-02T22:24:00.433Z,1.50
2019-01-02T22:27:13.497Z,1.50
2019-01-02T22:29:42.785Z,1.50
2019-01-02T22:32:12.146Z,1.50
2019-01-02T22:34:42.113Z,1.40
2019-01-02T22:37:14.051Z,1.40
2019-01-02T22:39:47.223Z,1.30
2019-01-02T22:42:17.036Z,1.30
2019-01-02T22:44:47.139Z,1.30
2019-01-02T22:47:27.945Z,1.20
2019-01-02T22:49:57.905Z,1.20
2019-01-02T22:52:27.569Z,1.20
2019-01-02T22:54:58.417Z,1.10
2019-01-02T22:57:38.369Z,1.10
2019-01-02T23:00:28.693Z,1.10
2019-01-02T23:03:17.497Z,1.00
2019-01-02T23:06:18.557Z,1.00
2019-01-02T23:09:07.033Z,0.90
2019-01-02T23:11:59.423Z,0.90
2019-01-02T23:14:46.401Z,0.80
2019-01-02T23:17:41.427Z,0.80
2019-01-02T23:20:30.737Z,0.80
2019-01-02T23:23:19.097Z,0.70
2019-01-02T23:26:08.626Z,0.70
2019-01-02T23:29:00.035Z,0.70
2019-01-02T23:31:53.301Z,0.70
2019-01-02T23:34:59.729Z,0.60
2019-01-02T23:38:00.481Z,0.60
2019-01-02T23:41:00.879Z,0.60
2019-01-02T23:43:44.375Z,0.60
2019-01-02T23:46:42.105Z,0.50
2019-01-02T23:49:29.325Z,0.50
2019-01-02T23:52:22.181Z,0.50
2019-01-02T23:55:18.067Z,0.50
2019-01-02T23:58:05.501Z,0.40
